createdAt,value
2023-04-21T00:01:55.346Z,3.40
2023-04-21T00:04:23.977Z,3.03
2023-04-21T00:06:53.423Z,3.00
2023-04-21T00:09:21.671Z,3.23
2023-04-21T00:11:50.958Z,3.00
2023-04-21T00:14:18.786Z,3.23
2023-04-21T00:16:46.592Z,3.27
2023-04-21T00:19:15.813Z,3.00
2023-04-21T00:21:43.776Z,3.13
2023-04-21T00:24:11.509Z,3.33
2023-04-21T00:26:39.246Z,3.37
2023-04-21T00:29:06.941Z,3.37
2023-04-21T00:31:34.783Z,3.30
2023-04-21T00:34:02.676Z,5.67
2023-04-21T00:36:32.204Z,3.00
2023-04-21T00:39:00.602Z,4.27
2023-04-21T00:41:29.683Z,3.67
2023-04-21T00:44:05.268Z,3.73
2023-04-21T00:46:33.311Z,3.50
2023-04-21T00:49:01.929Z,3.53
2023-04-21T00:51:33.089Z,3.50
2023-04-21T00:54:04.890Z,4.33
2023-04-21T00:56:33.966Z,3.60
2023-04-21T00:59:02.712Z,3.50
2023-04-21T01:01:31.155Z,3.83
2023-04-21T01:04:01.712Z,4.50
2023-04-21T01:06:33.210Z,4.50
2023-04-21T01:09:01.580Z,3.80
2023-04-21T01:11:29.239Z,4.07
2023-04-21T01:13:56.971Z,4.17
2023-04-21T01:16:25.536Z,3.60
2023-04-21T01:18:55.058Z,3.93
2023-04-21T01:21:23.728Z,4.20
2023-04-21T01:23:52.883Z,5.00
2023-04-21T01:26:22.708Z,5.97
2023-04-21T01:28:50.530Z,4.67
2023-04-21T01:31:21.128Z,4.97
2023-04-21T01:33:49.029Z,4.03
2023-04-21T01:36:17.469Z,4.60
2023-04-21T01:38:45.585Z,4.13
2023-04-21T01:41:14.822Z,4.07
2023-04-21T01:43:42.631Z,3.77
2023-04-21T01:46:10.786Z,5.00
2023-04-21T01:48:38.939Z,4.00
2023-04-21T01:51:07.307Z,4.87
2023-04-21T01:53:35.038Z,4.10
2023-04-21T01:56:02.937Z,4.30
2023-04-21T01:58:33.475Z,3.83
2023-04-21T02:01:01.184Z,3.50
2023-04-21T02:03:29.389Z,3.47
2023-04-21T02:05:57.277Z,3.37
2023-04-21T02:08:24.896Z,3.70
2023-04-21T02:10:52.578Z,4.13
2023-04-21T02:13:20.423Z,3.30
2023-04-21T02:15:50.418Z,4.03
2023-04-21T02:18:21.709Z,3.13
2023-04-21T02:20:49.981Z,2.80
2023-04-21T02:23:17.665Z,3.60
2023-04-21T02:25:45.331Z,3.40
2023-04-21T02:28:13.467Z,3.40
2023-04-21T02:30:42.610Z,3.50
2023-04-21T02:33:11.782Z,3.27
2023-04-21T02:35:39.535Z,3.07
2023-04-21T02:38:08.906Z,2.60
2023-04-21T02:40:36.632Z,2.70
2023-04-21T02:43:04.421Z,3.03
2023-04-21T02:45:32.548Z,2.80
2023-04-21T02:48:00.509Z,4.90
2023-04-21T02:50:29.714Z,3.30
2023-04-21T02:52:57.436Z,3.23
2023-04-21T02:55:25.649Z,4.27
2023-04-21T02:57:53.342Z,2.63
2023-04-21T03:00:23.936Z,3.00
2023-04-21T03:02:53.373Z,3.20
2023-04-21T03:05:21.565Z,2.83
2023-04-21T03:07:52.105Z,3.23
2023-04-21T03:10:21.185Z,3.00
2023-04-21T03:12:48.927Z,3.13
2023-04-21T03:15:17.154Z,3.27
2023-04-21T03:17:45.517Z,3.03
2023-04-21T03:20:13.378Z,3.27
2023-04-21T03:22:45.338Z,3.20
2023-04-21T03:25:18.420Z,3.10
2023-04-21T03:27:46.623Z,2.93
2023-04-21T03:30:14.372Z,3.07
2023-04-21T03:32:42.250Z,3.20
2023-04-21T03:35:09.927Z,2.50
2023-04-21T03:37:37.664Z,3.00
2023-04-21T03:40:07.246Z,2.67
2023-04-21T03:42:36.626Z,4.03
2023-04-21T03:45:05.515Z,3.03
2023-04-21T03:47:35.204Z,2.43
2023-04-21T03:50:05.802Z,2.80
2023-04-21T03:52:34.080Z,3.20
2023-04-21T03:55:03.109Z,3.07
2023-04-21T03:57:31.120Z,2.90
2023-04-21T04:00:00.193Z,3.27
2023-04-21T04:02:28.066Z,2.73
2023-04-21T04:04:55.816Z,2.90
2023-04-21T04:07:23.740Z,3.00
2023-04-21T04:09:51.418Z,2.90
2023-04-21T04:12:19.090Z,2.47
2023-04-21T04:14:46.745Z,2.57
2023-04-21T04:17:15.784Z,2.77
2023-04-21T04:19:43.610Z,2.83
2023-04-21T04:22:11.253Z,3.13
2023-04-21T04:24:39.011Z,2.67
2023-04-21T04:27:07.124Z,4.00
2023-04-21T04:29:34.974Z,4.20
2023-04-21T04:32:04.211Z,2.93
2023-04-21T04:34:37.550Z,3.37
2023-04-21T04:37:06.467Z,3.33
2023-04-21T04:39:34.177Z,3.33
2023-04-21T04:42:03.649Z,3.27
2023-04-21T04:44:31.960Z,5.50
2023-04-21T04:46:59.587Z,4.00
2023-04-21T04:49:27.326Z,3.20
2023-04-21T04:51:56.610Z,4.80
2023-04-21T04:54:24.832Z,3.33
2023-04-21T04:56:52.439Z,3.83
2023-04-21T04:59:20.242Z,3.60
2023-04-21T05:01:47.957Z,3.90
2023-04-21T05:04:17.030Z,3.43
2023-04-21T05:06:45.029Z,3.23
2023-04-21T05:09:14.009Z,3.77
2023-04-21T05:11:41.582Z,4.47
2023-04-21T05:14:09.186Z,4.10
2023-04-21T05:16:36.963Z,4.30
2023-04-21T05:19:05.110Z,3.87
2023-04-21T05:21:33.395Z,4.47
2023-04-21T05:24:01.362Z,4.03
2023-04-21T05:26:31.681Z,4.07
2023-04-21T05:28:59.568Z,3.50
2023-04-21T05:31:27.357Z,3.87
2023-04-21T05:33:55.359Z,6.40
2023-04-21T05:36:24.885Z,4.37
2023-04-21T05:38:52.556Z,4.13
2023-04-21T05:41:21.455Z,5.37
2023-04-21T05:43:50.540Z,4.83
2023-04-21T05:46:18.194Z,4.93
2023-04-21T05:48:45.997Z,5.07
2023-04-21T05:51:16.339Z,5.10
2023-04-21T05:53:45.264Z,5.50
2023-04-21T05:56:15.732Z,5.70
2023-04-21T05:58:43.564Z,5.40
2023-04-21T06:01:13.016Z,5.10
2023-04-21T06:03:40.935Z,5.27
2023-04-21T06:06:09.208Z,6.17
2023-04-21T06:08:36.873Z,5.93
2023-04-21T06:11:04.591Z,6.03
2023-04-21T06:13:32.308Z,5.40
2023-04-21T06:16:00.282Z,5.90
2023-04-21T06:18:29.558Z,5.33
2023-04-21T06:20:57.300Z,5.37
2023-04-21T06:23:24.895Z,5.60
2023-04-21T06:26:01.310Z,7.97
2023-04-21T06:28:28.993Z,5.57
2023-04-21T06:30:56.595Z,5.93
2023-04-21T06:33:24.408Z,6.50
2023-04-21T06:35:53.523Z,5.70
2023-04-21T06:38:21.266Z,7.03
2023-04-21T06:40:48.975Z,5.43
2023-04-21T06:43:16.803Z,5.63
2023-04-21T06:45:45.485Z,6.00
2023-04-21T06:48:13.158Z,6.17
2023-04-21T06:50:41.093Z,5.70
2023-04-21T06:53:11.049Z,7.20
2023-04-21T06:55:38.725Z,9.23
2023-04-21T06:58:06.380Z,7.87
2023-04-21T07:00:34.282Z,8.43
2023-04-21T07:03:02.073Z,8.53
2023-04-21T07:05:29.869Z,8.30
2023-04-21T07:07:59.930Z,9.60
2023-04-21T07:10:29.511Z,8.03
2023-04-21T07:12:57.270Z,9.37
2023-04-21T07:15:25.062Z,10.80
2023-04-21T07:17:52.825Z,9.73
2023-04-21T07:20:20.712Z,10.10
2023-04-21T07:22:48.322Z,9.13
2023-04-21T07:25:16.146Z,9.90
2023-04-21T07:27:45.076Z,11.27
2023-04-21T07:30:13.533Z,7.70
2023-04-21T07:32:41.215Z,6.40
2023-04-21T07:35:09.495Z,8.17
2023-04-21T07:37:37.220Z,8.20
2023-04-21T07:40:05.544Z,8.37
2023-04-21T07:42:33.214Z,10.87
2023-04-21T07:45:02.609Z,11.10
2023-04-21T07:47:30.631Z,7.40
2023-04-21T07:49:58.699Z,8.50
2023-04-21T07:52:26.339Z,9.80
2023-04-21T07:54:53.956Z,10.80
2023-04-21T07:57:21.567Z,8.67
2023-04-21T07:59:49.383Z,10.00
2023-04-21T08:02:18.376Z,9.97
2023-04-21T08:04:46.109Z,12.20
2023-04-21T08:07:15.908Z,10.40
2023-04-21T08:09:43.702Z,8.67
2023-04-21T08:12:11.294Z,7.30
2023-04-21T08:14:38.967Z,12.83
2023-04-21T08:17:06.584Z,7.83
2023-04-21T08:19:35.756Z,8.17
2023-04-21T08:22:03.394Z,9.63
2023-04-21T08:24:31.010Z,8.00
2023-04-21T08:26:58.675Z,8.50
2023-04-21T08:29:26.300Z,8.70
2023-04-21T08:31:53.964Z,9.00
2023-04-21T08:34:22.568Z,9.17
2023-04-21T08:36:53.288Z,9.33
2023-04-21T08:39:21.207Z,7.30
2023-04-21T08:41:49.170Z,9.10
2023-04-21T08:44:18.449Z,6.77
2023-04-21T08:46:46.552Z,8.03
2023-04-21T08:49:20.194Z,6.87
2023-04-21T08:51:48.811Z,9.60
2023-04-21T08:54:17.902Z,9.47
2023-04-21T08:56:45.514Z,10.67
2023-04-21T08:59:13.075Z,8.67
2023-04-21T09:02:07.419Z,6.03
2023-04-21T09:04:35.532Z,6.73
2023-04-21T09:07:03.410Z,8.53
2023-04-21T09:09:32.438Z,7.23
2023-04-21T09:12:00.087Z,8.77
2023-04-21T09:14:33.549Z,7.47
2023-04-21T09:17:02.196Z,5.83
2023-04-21T09:19:30.113Z,6.17
2023-04-21T09:21:58.290Z,8.00
2023-04-21T09:24:26.042Z,7.67
2023-04-21T09:26:55.569Z,7.03
2023-04-21T09:29:23.883Z,9.43
2023-04-21T09:31:52.041Z,7.40
2023-04-21T09:34:21.390Z,6.80
2023-04-21T09:36:49.054Z,5.70
2023-04-21T09:41:47.490Z,6.17
2023-04-21T09:44:17.740Z,5.20
2023-04-21T09:46:48.977Z,8.97
2023-04-21T09:49:18.362Z,5.77
2023-04-21T09:54:29.057Z,7.53
2023-04-21T09:57:01.676Z,6.83
2023-04-21T09:59:35.812Z,4.93
2023-04-21T10:02:06.756Z,5.30
2023-04-21T10:04:36.652Z,8.00
2023-04-21T10:07:05.110Z,6.57
2023-04-21T10:09:39.912Z,7.17
2023-04-21T10:12:09.666Z,5.33
2023-04-21T10:14:39.036Z,6.33
2023-04-21T10:17:08.362Z,5.93
2023-04-21T10:19:39.933Z,5.27
2023-04-21T10:22:09.574Z,6.67
2023-04-21T10:24:39.848Z,6.53
2023-04-21T10:27:11.213Z,7.60
2023-04-21T10:29:55.669Z,11.03
2023-04-21T10:32:45.431Z,6.37
2023-04-21T10:35:14.865Z,7.27
2023-04-21T10:37:43.155Z,5.47
2023-04-21T10:40:43.839Z,8.03
2023-04-21T10:43:48.947Z,6.67
2023-04-21T10:46:46.882Z,6.90
2023-04-21T10:49:24.486Z,5.90
2023-04-21T10:52:06.407Z,5.73
2023-04-21T10:54:45.809Z,8.07
2023-04-21T10:57:15.284Z,7.87
2023-04-21T10:59:43.441Z,6.20
2023-04-21T11:02:15.720Z,7.43
2023-04-21T11:04:48.669Z,6.23
2023-04-21T11:07:18.019Z,6.53
2023-04-21T11:09:48.207Z,5.83
2023-04-21T11:12:18.090Z,6.10
2023-04-21T11:14:47.984Z,7.27
2023-04-21T11:17:18.936Z,6.70
2023-04-21T11:19:47.482Z,8.60
2023-04-21T11:22:15.141Z,6.07
2023-04-21T11:24:45.459Z,9.87
2023-04-21T11:27:14.509Z,7.33
2023-04-21T11:29:42.235Z,5.10
2023-04-21T11:32:10.368Z,4.93
2023-04-21T11:34:39.712Z,7.00
2023-04-21T11:37:08.561Z,7.60
2023-04-21T11:39:36.289Z,6.23
2023-04-21T11:42:04.319Z,7.07
2023-04-21T11:44:33.923Z,6.80
2023-04-21T11:47:01.793Z,5.07
2023-04-21T11:49:30.518Z,5.50
2023-04-21T11:51:59.479Z,5.00
2023-04-21T11:54:30.347Z,4.93
2023-04-21T11:56:58.767Z,6.03
2023-04-21T11:59:29.293Z,4.60
2023-04-21T12:01:57.103Z,5.20
2023-04-21T12:04:27.363Z,5.50
2023-04-21T12:07:01.096Z,6.13
2023-04-21T12:09:29.474Z,4.37
2023-04-21T12:11:58.792Z,6.30
2023-04-21T12:14:27.505Z,4.83
2023-04-21T12:16:56.980Z,5.03
2023-04-21T12:19:26.653Z,4.67
2023-04-21T12:21:55.579Z,5.53
2023-04-21T12:24:24.987Z,5.57
2023-04-21T12:26:52.803Z,3.40
2023-04-21T12:29:20.535Z,5.90
2023-04-21T12:31:48.181Z,4.43
2023-04-21T12:34:16.194Z,5.67
2023-04-21T12:36:44.076Z,4.97
2023-04-21T12:39:11.864Z,6.37
2023-04-21T12:41:40.872Z,6.07
2023-04-21T12:44:08.732Z,6.50
2023-04-21T12:46:36.432Z,5.83
2023-04-21T12:49:06.428Z,6.43
2023-04-21T12:51:34.204Z,7.13
2023-04-21T12:54:02.485Z,6.30
2023-04-21T12:56:31.417Z,4.27
2023-04-21T12:59:00.546Z,4.80
2023-04-21T13:01:28.478Z,5.80
2023-04-21T13:03:56.344Z,7.17
2023-04-21T13:06:24.231Z,4.10
2023-04-21T13:08:51.864Z,5.73
2023-04-21T13:11:19.682Z,5.40
2023-04-21T13:13:47.310Z,4.53
2023-04-21T13:16:17.083Z,7.10
2023-04-21T13:18:46.106Z,6.60
2023-04-21T13:21:14.040Z,6.37
2023-04-21T13:23:42.017Z,5.43
2023-04-21T13:26:10.123Z,5.87
2023-04-21T13:28:38.498Z,5.87
2023-04-21T13:31:07.160Z,8.17
2023-04-21T13:33:36.402Z,6.30
2023-04-21T13:36:04.960Z,6.30
2023-04-21T13:38:32.865Z,4.60
2023-04-21T13:41:00.741Z,4.30
2023-04-21T13:43:29.314Z,7.37
2023-04-21T13:45:58.345Z,6.67
2023-04-21T13:48:26.724Z,4.53
2023-04-21T13:50:55.796Z,8.47
2023-04-21T13:53:23.522Z,8.70
2023-04-21T13:55:52.852Z,5.30
2023-04-21T13:58:21.109Z,5.80
2023-04-21T14:00:53.122Z,5.80
2023-04-21T14:03:29.521Z,4.80
2023-04-21T14:05:59.312Z,4.40
2023-04-21T14:08:27.201Z,7.40
2023-04-21T14:10:54.878Z,8.67
2023-04-21T14:13:35.620Z,7.30
2023-04-21T14:16:08.583Z,7.73
2023-04-21T14:18:38.044Z,4.73
2023-04-21T14:21:07.334Z,4.97
2023-04-21T14:23:35.053Z,7.27
2023-04-21T14:26:03.064Z,6.50
2023-04-21T14:28:31.272Z,4.67
2023-04-21T14:30:58.997Z,5.30
2023-04-21T14:33:29.927Z,10.80
2023-04-21T14:35:57.782Z,4.63
2023-04-21T14:38:27.018Z,4.77
2023-04-21T14:40:55.828Z,7.07
2023-04-21T14:43:23.751Z,5.63
2023-04-21T14:45:51.708Z,7.10
2023-04-21T14:48:19.702Z,6.37
2023-04-21T14:50:47.548Z,6.93
2023-04-21T14:53:15.196Z,6.73
2023-04-21T14:55:44.194Z,5.20
2023-04-21T14:58:11.876Z,7.43
2023-04-21T15:00:40.072Z,4.67
2023-04-21T15:03:07.936Z,5.47
2023-04-21T15:05:36.722Z,4.80
2023-04-21T15:08:05.256Z,4.73
2023-04-21T15:10:33.012Z,4.83
2023-04-21T15:13:02.056Z,6.40
2023-04-21T15:15:29.784Z,6.53
2023-04-21T15:17:57.482Z,8.10
2023-04-21T15:20:40.708Z,7.20
2023-04-21T15:23:12.162Z,6.33
2023-04-21T15:25:40.313Z,4.80
2023-04-21T15:28:09.532Z,5.47
2023-04-21T15:30:37.338Z,5.23
2023-04-21T15:33:05.368Z,5.50
2023-04-21T15:35:33.027Z,4.20
2023-04-21T15:38:00.622Z,9.57
2023-04-21T15:40:28.427Z,7.33
2023-04-21T15:42:56.099Z,5.00
2023-04-21T15:45:25.078Z,4.27
2023-04-21T15:47:52.743Z,5.47
2023-04-21T15:50:20.662Z,4.37
2023-04-21T15:52:48.380Z,4.60
2023-04-21T15:55:16.270Z,6.50
2023-04-21T15:57:43.924Z,5.70
2023-04-21T16:00:12.900Z,6.13
2023-04-21T16:02:42.217Z,7.97
2023-04-21T16:05:10.433Z,6.10
2023-04-21T16:07:38.171Z,6.30
2023-04-21T16:10:06.671Z,4.97
2023-04-21T16:12:34.472Z,5.13
2023-04-21T16:15:16.022Z,4.53
2023-04-21T16:17:45.457Z,5.10
2023-04-21T16:20:14.289Z,4.53
2023-04-21T16:22:41.987Z,4.57
2023-04-21T16:25:12.269Z,7.50
2023-04-21T16:27:39.999Z,5.23
2023-04-21T16:30:09.149Z,5.07
2023-04-21T16:32:36.798Z,5.13
2023-04-21T16:35:08.121Z,4.57
2023-04-21T16:37:38.085Z,4.87
2023-04-21T16:40:07.425Z,5.70
2023-04-21T16:42:35.313Z,5.17
2023-04-21T16:45:04.353Z,4.17
2023-04-21T16:47:33.887Z,5.63
2023-04-21T16:50:01.783Z,6.00
2023-04-21T16:52:30.735Z,5.07
2023-04-21T16:54:58.367Z,4.20
2023-04-21T16:57:26.188Z,4.67
2023-04-21T16:59:53.991Z,5.27
2023-04-21T17:02:22.258Z,4.10
2023-04-21T17:04:50.094Z,4.50
2023-04-21T17:07:18.092Z,4.90
2023-04-21T17:09:47.009Z,4.17
2023-04-21T17:12:14.583Z,6.33
2023-04-21T17:14:42.200Z,6.53
2023-04-21T17:17:12.901Z,5.10
2023-04-21T17:19:40.747Z,5.33
2023-04-21T17:22:08.348Z,7.53
2023-04-21T17:24:51.914Z,8.60
2023-04-21T17:27:22.185Z,6.70
2023-04-21T17:29:49.985Z,5.87
2023-04-21T17:32:17.605Z,5.00
2023-04-21T17:34:45.734Z,4.67
2023-04-21T17:37:13.383Z,6.27
2023-04-21T17:39:41.532Z,4.60
2023-04-21T17:42:09.905Z,4.73
2023-04-21T17:44:40.063Z,3.87
2023-04-21T17:47:08.944Z,4.90
2023-04-21T17:49:36.739Z,5.70
2023-04-21T17:52:04.547Z,5.37
2023-04-21T17:54:35.071Z,4.83
2023-04-21T17:57:02.985Z,4.67
2023-04-21T17:59:31.171Z,4.77
2023-04-21T18:02:00.970Z,4.07
2023-04-21T18:04:30.864Z,5.47
2023-04-21T18:06:58.964Z,4.30
2023-04-21T18:09:27.098Z,7.93
2023-04-21T18:11:54.786Z,4.83
2023-04-21T18:14:22.972Z,5.07
2023-04-21T18:16:50.657Z,6.90
2023-04-21T18:19:19.782Z,4.77
2023-04-21T18:21:47.578Z,4.30
2023-04-21T18:24:15.895Z,3.80
2023-04-21T18:26:44.182Z,3.70
2023-04-21T18:29:11.972Z,4.30
2023-04-21T18:31:39.757Z,4.07
2023-04-21T18:34:08.720Z,6.70
2023-04-21T18:36:38.594Z,4.57
2023-04-21T18:39:06.545Z,5.80
2023-04-21T18:41:34.213Z,7.60
2023-04-21T18:44:02.465Z,4.17
2023-04-21T18:46:30.276Z,4.07
2023-04-21T18:48:58.028Z,4.43
2023-04-21T18:51:31.277Z,3.60
2023-04-21T18:54:00.258Z,4.30
2023-04-21T18:56:28.585Z,5.47
2023-04-21T18:58:56.782Z,5.43
2023-04-21T19:01:24.720Z,4.97
2023-04-21T19:03:53.065Z,4.70
2023-04-21T19:06:20.904Z,4.40
2023-04-21T19:08:51.091Z,4.10
2023-04-21T19:11:20.232Z,4.70
2023-04-21T19:13:48.790Z,5.73
2023-04-21T19:16:17.197Z,4.40
2023-04-21T19:18:44.923Z,4.23
2023-04-21T19:21:13.659Z,4.10
2023-04-21T19:23:42.010Z,4.27
2023-04-21T19:26:11.835Z,3.73
2023-04-21T19:28:41.912Z,3.83
2023-04-21T19:31:10.222Z,3.60
2023-04-21T19:33:38.096Z,3.63
2023-04-21T19:36:06.414Z,4.03
2023-04-21T19:38:35.335Z,4.10
2023-04-21T19:41:03.978Z,3.73
2023-04-21T19:43:31.702Z,4.17
2023-04-21T19:46:00.960Z,3.77
2023-04-21T19:48:28.910Z,3.97
2023-04-21T19:50:56.622Z,3.50
2023-04-21T19:53:24.748Z,3.50
2023-04-21T19:55:52.942Z,3.30
2023-04-21T19:58:36.321Z,3.40
2023-04-21T20:01:09.216Z,3.30
2023-04-21T20:03:37.237Z,3.87
2023-04-21T20:06:06.100Z,3.10
2023-04-21T20:08:33.821Z,3.23
2023-04-21T20:11:01.571Z,3.80
2023-04-21T20:13:29.318Z,3.20
2023-04-21T20:15:57.213Z,3.33
2023-04-21T20:18:26.433Z,3.10
2023-04-21T20:20:54.133Z,3.17
2023-04-21T20:23:21.993Z,3.33
2023-04-21T20:25:49.907Z,3.00
2023-04-21T20:28:17.907Z,3.00
2023-04-21T20:30:45.696Z,2.97
2023-04-21T20:33:13.411Z,2.97
2023-04-21T20:36:08.532Z,3.60
2023-04-21T20:38:36.534Z,3.13
2023-04-21T20:41:04.872Z,2.70
2023-04-21T20:43:33.647Z,3.10
2023-04-21T20:46:01.868Z,2.90
2023-04-21T20:48:29.588Z,2.57
2023-04-21T20:50:57.485Z,3.80
2023-04-21T20:53:26.801Z,2.70
2023-04-21T20:55:54.538Z,3.23
2023-04-21T20:58:23.309Z,2.47
2023-04-21T21:00:51.091Z,2.90
2023-04-21T21:03:20.556Z,3.03
2023-04-21T21:05:48.672Z,2.93
2023-04-21T21:08:16.444Z,4.50
2023-04-21T21:10:45.437Z,3.30
2023-04-21T21:13:13.104Z,3.43
2023-04-21T21:15:40.824Z,3.43
2023-04-21T21:18:08.647Z,3.03
2023-04-21T21:20:36.342Z,3.47
2023-04-21T21:23:04.030Z,3.50
2023-04-21T21:25:31.726Z,4.10
2023-04-21T21:28:01.030Z,3.53
2023-04-21T21:30:28.738Z,3.77
2023-04-21T21:32:56.458Z,3.47
2023-04-21T21:35:24.240Z,3.17
2023-04-21T21:37:51.959Z,3.40
2023-04-21T21:40:19.726Z,4.20
2023-04-21T21:42:47.301Z,3.33
2023-04-21T21:45:16.558Z,3.50
2023-04-21T21:47:45.900Z,2.93
2023-04-21T21:50:13.802Z,2.40
2023-04-21T21:52:41.620Z,3.33
2023-04-21T21:55:10.049Z,3.43
2023-04-21T21:57:37.942Z,3.03
2023-04-21T22:00:08.263Z,3.10
2023-04-21T22:02:37.792Z,3.60
2023-04-21T22:05:06.080Z,3.20
2023-04-21T22:07:33.706Z,3.70
2023-04-21T22:10:01.442Z,3.50
2023-04-21T22:12:29.357Z,4.67
2023-04-21T22:14:57.024Z,4.83
2023-04-21T22:17:24.972Z,4.20
2023-04-21T22:19:54.692Z,4.37
2023-04-21T22:22:22.675Z,4.10
2023-04-21T22:24:50.360Z,3.93
2023-04-21T22:27:17.968Z,3.50
2023-04-21T22:29:45.626Z,4.07
2023-04-21T22:32:13.292Z,4.00
2023-04-21T22:34:41.085Z,3.83
2023-04-21T22:37:10.230Z,6.43
2023-04-21T22:39:39.029Z,4.33
2023-04-21T22:42:07.026Z,4.17
2023-04-21T22:44:34.785Z,4.77
2023-04-21T22:47:04.300Z,4.83
2023-04-21T22:49:32.577Z,4.77
2023-04-21T22:52:00.336Z,5.10
2023-04-21T22:54:29.361Z,4.50
2023-04-21T22:56:57.571Z,4.87
2023-04-21T22:59:25.761Z,5.60
2023-04-21T23:01:53.479Z,5.53
2023-04-21T23:04:21.840Z,5.90
2023-04-21T23:06:49.552Z,6.57
2023-04-21T23:09:17.866Z,6.53
2023-04-21T23:11:46.887Z,5.53
2023-04-21T23:14:14.593Z,6.63
2023-04-21T23:16:42.780Z,5.77
2023-04-21T23:19:10.765Z,5.77
2023-04-21T23:21:38.547Z,5.90
2023-04-21T23:24:07.005Z,5.30
2023-04-21T23:26:34.644Z,5.10
2023-04-21T23:29:03.719Z,5.70
2023-04-21T23:31:31.760Z,5.10
2023-04-21T23:34:00.633Z,5.53
2023-04-21T23:36:28.595Z,5.87
2023-04-21T23:38:56.211Z,6.30
2023-04-21T23:41:24.120Z,5.30
2023-04-21T23:43:51.962Z,5.57
2023-04-21T23:46:20.945Z,6.07
2023-04-21T23:48:48.622Z,6.03
2023-04-21T23:51:17.074Z,5.53
2023-04-21T23:53:44.885Z,5.70
2023-04-21T23:56:12.623Z,6.43
2023-04-21T23:58:40.344Z,6.00
